Time;durP1;ratioP1;P1;durP2;ratioP2;P2;SDS_P1;SDS_P2;PMS_P1;PMS_P2;Temp;Humidity;BMP_temperature;BMP_pressure;BME280_temperature;BME280_humidity;BME280_pressure;Samples;Min_cycle;Max_cycle;Signal;HPM_P1;HPM_P2
2024/02/22 00:01:05;;;;;;;;;;;;;;;0.91;71.59;101602.85;107581;1256;108704;-66
2024/02/22 00:03:49;;;;;;;;;;;;;;;0.91;71.55;101607.80;107600;1253;108652;-66
2024/02/22 00:06:17;;;;;;;;;;;;;;;0.89;71.23;101605.59;107559;1253;97910;-67
2024/02/22 00:08:48;;;;;;;;;;;;;;;0.86;71.17;101604.27;107607;1254;97827;-66
2024/02/22 00:11:16;;;;;;;;;;;;;;;0.82;71.08;101602.30;107579;1253;111487;-67
2024/02/22 00:13:46;;;;;;;;;;;;;;;0.77;71.31;101602.63;107619;1255;108505;-65
2024/02/22 00:16:15;;;;;;;;;;;;;;;0.74;71.52;101601.85;107583;1255;108005;-65
2024/02/22 00:18:47;;;;;;;;;;;;;;;0.73;71.69;101592.02;107552;1252;97909;-65
2024/02/22 00:21:17;;;;;;;;;;;;;;;0.71;71.99;101593.14;107621;1253;97834;-64
2024/02/22 00:23:45;;;;;;;;;;;;;;;0.71;72.32;101592.61;107543;1254;112312;-64
2024/02/22 00:26:14;;;;;;;;;;;;;;;0.70;71.95;101588.04;107578;1254;108375;-64
2024/02/22 00:28:42;;;;;;;;;;;;;;;0.68;72.09;101582.29;107575;1253;109403;-64
2024/02/22 00:31:10;;;;;;;;;;;;;;;0.66;72.26;101582.02;107592;1254;97849;-66
2024/02/22 00:33:38;;;;;;;;;;;;;;;0.62;72.16;101580.52;107627;1254;97723;-64
2024/02/22 00:36:06;;;;;;;;;;;;;;;0.62;72.56;101582.84;107580;1254;112263;-64
2024/02/22 00:38:35;;;;;;;;;;;;;;;0.60;72.13;101584.48;107605;1252;107337;-65
2024/02/22 00:41:03;;;;;;;;;;;;;;;0.58;72.14;101585.27;107589;1254;108156;-63
2024/02/22 00:43:32;;;;;;;;;;;;;;;0.57;72.20;101579.66;107568;1253;97811;-64
2024/02/22 00:46:00;;;;;;;;;;;;;;;0.54;72.24;101574.27;107528;1254;98648;-66
2024/02/22 00:48:28;;;;;;;;;;;;;;;0.53;72.30;101571.50;107589;1254;111863;-66
2024/02/22 00:50:57;;;;;;;;;;;;;;;0.51;72.28;101568.76;107615;1253;108370;-65
2024/02/22 00:53:25;;;;;;;;;;;;;;;0.50;72.36;101569.65;107557;1252;107399;-64
2024/02/22 00:55:53;;;;;;;;;;;;;;;0.47;72.55;101568.34;107588;1252;97828;-64
2024/02/22 00:58:22;;;;;;;;;;;;;;;0.46;72.46;101568.20;107603;1254;97853;-64
2024/02/22 01:00:50;;;;;;;;;;;;;;;0.42;72.22;101564.45;107572;1253;111855;-64
2024/02/22 01:03:18;;;;;;;;;;;;;;;0.41;72.38;101557.59;107604;1254;107143;-64
2024/02/22 01:05:46;;;;;;;;;;;;;;;0.41;72.61;101557.58;107545;1254;108941;-63
2024/02/22 01:08:15;;;;;;;;;;;;;;;0.38;72.30;101555.56;107588;1252;97909;-66
2024/02/22 01:10:43;;;;;;;;;;;;;;;0.36;72.40;101555.48;107601;1254;97908;-65
2024/02/22 01:13:11;;;;;;;;;;;;;;;0.34;72.29;101554.30;107611;1253;111644;-64
2024/02/22 01:15:41;;;;;;;;;;;;;;;0.31;72.19;101554.05;107621;1253;107867;-65
2024/02/22 01:18:09;;;;;;;;;;;;;;;0.28;72.17;101552.54;107593;1253;108014;-64
2024/02/22 01:20:37;;;;;;;;;;;;;;;0.26;72.38;101549.81;107587;1254;97945;-67
2024/02/22 01:23:06;;;;;;;;;;;;;;;0.25;72.40;101547.35;107576;1256;97984;-65
2024/02/22 01:25:36;;;;;;;;;;;;;;;0.21;72.25;101544.86;107651;1256;111222;-66
2024/02/22 01:28:06;;;;;;;;;;;;;;;0.16;71.99;101546.08;107587;1255;108447;-63
2024/02/22 01:30:34;;;;;;;;;;;;;;;0.13;72.41;101540.50;107354;1254;106341;-64
2024/02/22 01:33:04;;;;;;;;;;;;;;;0.11;72.82;101536.89;107617;1253;97829;-65
2024/02/22 01:35:32;;;;;;;;;;;;;;;0.09;72.66;101533.05;107605;1251;97826;-66
2024/02/22 01:38:00;;;;;;;;;;;;;;;0.11;72.92;101530.54;107569;1254;111951;-65
2024/02/22 01:40:29;;;;;;;;;;;;;;;0.11;72.76;101525.39;107597;1254;108044;-64
2024/02/22 01:42:57;;;;;;;;;;;;;;;0.10;72.62;101522.29;107575;1253;108415;-64
2024/02/22 01:45:26;;;;;;;;;;;;;;;0.07;72.74;101524.48;107607;1253;97904;-64
2024/02/22 01:47:54;;;;;;;;;;;;;;;0.04;73.00;101522.11;107551;1254;97829;-64
2024/02/22 01:50:23;;;;;;;;;;;;;;;-0.02;73.09;101523.55;107578;1251;112597;-62
2024/02/22 01:52:51;;;;;;;;;;;;;;;-0.09;73.39;101520.41;107645;1254;107565;-65
2024/02/22 01:55:20;;;;;;;;;;;;;;;-0.14;73.41;101522.14;107618;1254;107743;-65
2024/02/22 01:57:51;;;;;;;;;;;;;;;-0.15;73.48;101516.89;107558;1253;97847;-63
2024/02/22 02:00:23;;;;;;;;;;;;;;;-0.16;73.49;101517.10;107579;1255;97825;-64
2024/02/22 02:02:52;;;;;;;;;;;;;;;-0.18;73.41;101519.08;107642;1254;112187;-64
2024/02/22 02:05:20;;;;;;;;;;;;;;;-0.19;73.52;101519.30;107589;1254;107658;-64
2024/02/22 02:07:49;;;;;;;;;;;;;;;-0.20;73.38;101514.59;107595;1253;108588;-69
2024/02/22 02:10:17;;;;;;;;;;;;;;;-0.22;73.41;101510.24;107568;1254;97928;-64
2024/02/22 02:12:45;;;;;;;;;;;;;;;-0.26;73.46;101505.95;107572;1254;97742;-65
2024/02/22 02:15:14;;;;;;;;;;;;;;;-0.25;73.58;101504.89;107591;1254;110832;-66
2024/02/22 02:17:43;;;;;;;;;;;;;;;-0.27;73.43;101507.73;107589;1254;108419;-65
2024/02/22 02:20:14;;;;;;;;;;;;;;;-0.27;73.61;101509.19;107621;1252;107812;-65
2024/02/22 02:22:50;;;;;;;;;;;;;;;-0.27;73.62;101508.30;107614;1255;97930;-66
2024/02/22 02:25:19;;;;;;;;;;;;;;;-0.26;73.55;101508.09;107649;1256;97863;-65
2024/02/22 02:27:47;;;;;;;;;;;;;;;-0.26;73.65;101505.77;107531;1258;111390;-67
2024/02/22 02:30:15;;;;;;;;;;;;;;;-0.25;73.72;101500.30;107581;1254;108758;-68
2024/02/22 02:32:44;;;;;;;;;;;;;;;-0.25;73.76;101498.17;107557;1254;107534;-66
2024/02/22 02:35:12;;;;;;;;;;;;;;;-0.26;73.56;101498.02;107545;1252;97918;-65
2024/02/22 02:37:41;;;;;;;;;;;;;;;-0.28;74.00;101495.61;107500;1253;97851;-66
2024/02/22 02:40:09;;;;;;;;;;;;;;;-0.26;73.96;101495.04;107561;1254;111434;-64
2024/02/22 02:42:38;;;;;;;;;;;;;;;-0.26;74.12;101496.97;107574;1254;108250;-65
2024/02/22 02:45:06;;;;;;;;;;;;;;;-0.24;74.18;101495.33;107576;1254;108254;-65
2024/02/22 02:47:35;;;;;;;;;;;;;;;-0.25;74.15;101487.06;107602;1254;97714;-67
2024/02/22 02:50:06;;;;;;;;;;;;;;;-0.28;74.32;101487.69;107561;1254;97835;-68
2024/02/22 02:52:35;;;;;;;;;;;;;;;-0.36;73.76;101490.23;107559;1258;111262;-68
2024/02/22 02:55:03;;;;;;;;;;;;;;;-0.40;74.22;101489.47;107623;1254;107412;-67
2024/02/22 02:57:32;;;;;;;;;;;;;;;-0.44;74.10;101486.60;107590;1255;108658;-66
2024/02/22 03:00:00;;;;;;;;;;;;;;;-0.46;74.53;101485.45;107609;1255;98591;-64
2024/02/22 03:02:29;;;;;;;;;;;;;;;-0.47;74.38;101490.75;107603;1254;97896;-64
2024/02/22 03:04:57;;;;;;;;;;;;;;;-0.49;74.31;101483.21;107578;1255;112320;-67
2024/02/22 03:07:25;;;;;;;;;;;;;;;-0.50;74.46;101487.48;107595;1251;107790;-67
2024/02/22 03:09:54;;;;;;;;;;;;;;;-0.50;74.50;101486.45;107607;1251;108348;-65
2024/02/22 03:12:22;;;;;;;;;;;;;;;-0.52;74.37;101488.77;107552;1250;97895;-65
2024/02/22 03:14:50;;;;;;;;;;;;;;;-0.52;74.32;101492.64;107610;1255;97768;-65
2024/02/22 03:17:20;;;;;;;;;;;;;;;-0.54;74.06;101487.44;107656;1251;111627;-66
2024/02/22 03:19:49;;;;;;;;;;;;;;;-0.59;74.18;101489.02;107551;1256;108352;-65
2024/02/22 03:22:19;;;;;;;;;;;;;;;-0.64;74.37;101493.38;107569;1251;108490;-66
2024/02/22 03:24:48;;;;;;;;;;;;;;;-0.66;74.33;101494.14;107548;1251;97853;-66
2024/02/22 03:27:16;;;;;;;;;;;;;;;-0.69;74.29;101492.98;107602;1251;97829;-66
2024/02/22 03:29:46;;;;;;;;;;;;;;;-0.70;74.44;101491.61;107575;1251;111388;-65
2024/02/22 03:32:15;;;;;;;;;;;;;;;-0.69;74.46;101498.11;107593;1251;107987;-66
2024/02/22 03:34:43;;;;;;;;;;;;;;;-0.69;74.80;101495.64;107604;1255;107751;-69
2024/02/22 03:37:12;;;;;;;;;;;;;;;-0.67;74.63;101498.40;107531;1256;97851;-65
2024/02/22 03:39:41;;;;;;;;;;;;;;;-0.67;74.50;101497.14;107597;1254;97817;-67
2024/02/22 03:42:09;;;;;;;;;;;;;;;-0.65;74.46;101495.86;107609;1255;110952;-68
2024/02/22 03:44:37;;;;;;;;;;;;;;;-0.63;74.61;101494.94;107568;1254;107987;-66
2024/02/22 03:47:06;;;;;;;;;;;;;;;-0.65;74.72;101494.45;107537;1252;108569;-66
2024/02/22 03:49:34;;;;;;;;;;;;;;;-0.67;74.41;101495.40;107569;1253;97867;-63
2024/02/22 03:52:04;;;;;;;;;;;;;;;-0.68;74.48;101502.67;107577;1253;97871;-67
2024/02/22 03:54:34;;;;;;;;;;;;;;;-0.69;74.71;101500.05;107554;1253;111413;-63
2024/02/22 03:57:02;;;;;;;;;;;;;;;-0.69;74.66;101501.81;107527;1254;110752;-64
2024/02/22 03:59:30;;;;;;;;;;;;;;;-0.70;74.82;101499.17;107429;1254;107743;-65
2024/02/22 04:01:58;;;;;;;;;;;;;;;-0.69;74.64;101501.63;107503;1254;97826;-66
2024/02/22 04:04:27;;;;;;;;;;;;;;;-0.69;74.63;101499.34;107544;1253;97844;-67
2024/02/22 04:06:56;;;;;;;;;;;;;;;-0.74;74.46;101500.19;107572;1256;111606;-66
2024/02/22 04:09:24;;;;;;;;;;;;;;;-0.75;74.63;101502.68;107503;1254;108337;-67
2024/02/22 04:11:52;;;;;;;;;;;;;;;-0.79;74.58;101499.80;107552;1256;107224;-65
2024/02/22 04:14:21;;;;;;;;;;;;;;;-0.84;74.43;101498.00;107578;1254;97858;-64
2024/02/22 04:16:49;;;;;;;;;;;;;;;-0.85;74.55;101493.65;107624;1254;97895;-63
2024/02/22 04:19:17;;;;;;;;;;;;;;;-0.84;74.88;101490.44;107575;1255;111762;-64
2024/02/22 04:21:47;;;;;;;;;;;;;;;-0.82;74.72;101492.49;107635;1255;108378;-64
2024/02/22 04:24:15;;;;;;;;;;;;;;;-0.81;74.70;101486.46;107550;1254;108167;-64
2024/02/22 04:26:48;;;;;;;;;;;;;;;-0.81;74.91;101486.45;107559;1254;97830;-65
2024/02/22 04:29:16;;;;;;;;;;;;;;;-0.82;75.16;101487.39;107521;1253;97727;-64
2024/02/22 04:31:47;;;;;;;;;;;;;;;-0.83;75.09;101490.05;107538;1254;112055;-64
2024/02/22 04:34:16;;;;;;;;;;;;;;;-0.83;75.29;101487.23;107564;1254;108652;-64
2024/02/22 04:36:44;;;;;;;;;;;;;;;-0.84;75.01;101486.02;107489;1256;107516;-64
2024/02/22 04:39:13;;;;;;;;;;;;;;;-0.88;74.86;101483.86;107685;1254;97820;-64
2024/02/22 04:41:43;;;;;;;;;;;;;;;-0.91;74.75;101479.91;107643;1252;97915;-65
2024/02/22 04:44:14;;;;;;;;;;;;;;;-0.91;74.81;101479.20;107572;1254;111354;-64
2024/02/22 04:46:42;;;;;;;;;;;;;;;-0.90;74.91;101483.77;107622;1254;108312;-64
2024/02/22 04:49:11;;;;;;;;;;;;;;;-0.92;74.78;101482.77;107615;1254;108653;-64
2024/02/22 04:51:40;;;;;;;;;;;;;;;-0.93;74.86;101481.70;107526;1256;97866;-64
2024/02/22 04:54:09;;;;;;;;;;;;;;;-0.90;74.69;101482.17;107533;1254;98009;-64
2024/02/22 04:56:37;;;;;;;;;;;;;;;-0.89;74.74;101486.18;107545;1254;111693;-63
2024/02/22 04:59:06;;;;;;;;;;;;;;;-0.89;74.76;101482.33;107487;1252;108355;-64
2024/02/22 05:01:34;;;;;;;;;;;;;;;-0.88;74.81;101482.45;107534;1254;107993;-65
2024/02/22 05:04:03;;;;;;;;;;;;;;;-0.86;75.28;101484.35;107645;1254;96935;-67
2024/02/22 05:06:32;;;;;;;;;;;;;;;-0.83;75.32;101488.80;107633;1255;97725;-68
2024/02/22 05:09:00;;;;;;;;;;;;;;;-0.81;75.59;101486.28;107608;1255;111774;-64
2024/02/22 05:11:28;;;;;;;;;;;;;;;-0.76;75.66;101485.47;107648;1254;108430;-63
2024/02/22 05:13:59;;;;;;;;;;;;;;;-0.72;75.94;101490.08;107559;1256;108182;-65
2024/02/22 05:16:28;;;;;;;;;;;;;;;-0.65;76.00;101489.69;107633;1254;97919;-64
2024/02/22 05:18:57;;;;;;;;;;;;;;;-0.59;76.13;101485.98;107691;1256;97908;-65
2024/02/22 05:21:26;;;;;;;;;;;;;;;-0.50;76.27;101485.20;107586;1254;111009;-65
2024/02/22 05:23:54;;;;;;;;;;;;;;;-0.42;76.16;101483.17;107547;1255;107768;-65
2024/02/22 05:26:22;;;;;;;;;;;;;;;-0.34;76.35;101482.40;107569;1254;107119;-65
2024/02/22 05:28:53;;;;;;;;;;;;;;;-0.25;76.49;101478.59;107434;1254;97859;-66
2024/02/22 05:31:25;;;;;;;;;;;;;;;-0.16;76.49;101477.97;107537;1256;97903;-65
2024/02/22 05:33:53;;;;;;;;;;;;;;;-0.06;76.55;101469.36;107391;1259;111768;-64
2024/02/22 05:36:21;;;;;;;;;;;;;;;0.01;77.37;101471.75;107604;1254;107730;-64
2024/02/22 05:38:50;;;;;;;;;;;;;;;0.08;77.24;101469.42;107611;1254;106845;-64
2024/02/22 05:41:18;;;;;;;;;;;;;;;0.16;77.51;101476.23;107607;1255;97857;-64
2024/02/22 05:43:47;;;;;;;;;;;;;;;0.22;77.53;101475.48;107555;1255;97873;-64
2024/02/22 05:46:15;;;;;;;;;;;;;;;0.28;77.51;101475.26;107638;1254;111185;-64
2024/02/22 05:48:44;;;;;;;;;;;;;;;0.37;78.03;101476.38;107534;1256;108306;-64
2024/02/22 05:51:12;;;;;;;;;;;;;;;0.48;78.46;101477.40;107504;1255;107700;-65
2024/02/22 05:53:42;;;;;;;;;;;;;;;0.59;78.65;101473.15;107708;1251;97924;-65
2024/02/22 05:56:10;;;;;;;;;;;;;;;0.68;78.28;101475.65;107549;1251;97735;-65
2024/02/22 05:58:38;;;;;;;;;;;;;;;0.76;78.48;101470.08;107569;1254;111845;-67
2024/02/22 06:01:07;;;;;;;;;;;;;;;0.84;78.27;101471.04;107592;1255;108648;-65
2024/02/22 06:03:37;;;;;;;;;;;;;;;0.92;78.44;101474.41;107572;1254;108404;-65
2024/02/22 06:06:05;;;;;;;;;;;;;;;1.01;78.39;101475.01;107578;1254;97850;-67
2024/02/22 06:08:42;;;;;;;;;;;;;;;1.08;78.76;101473.33;107607;1255;97717;-65
2024/02/22 06:11:17;;;;;;;;;;;;;;;1.15;78.64;101479.58;107601;1255;111641;-65
2024/02/22 06:13:46;;;;;;;;;;;;;;;1.22;78.91;101480.38;107583;1254;107557;-65
2024/02/22 06:16:14;;;;;;;;;;;;;;;1.30;78.88;101479.20;107605;1255;107683;-63
2024/02/22 06:18:46;;;;;;;;;;;;;;;1.35;79.23;101482.52;107608;1256;97831;-65
2024/02/22 06:21:15;;;;;;;;;;;;;;;1.40;79.03;101482.72;107592;1254;97738;-65
2024/02/22 06:23:43;;;;;;;;;;;;;;;1.46;79.49;101487.10;107610;1256;111669;-66
2024/02/22 06:26:11;;;;;;;;;;;;;;;1.55;79.34;101486.70;107581;1254;108592;-66
2024/02/22 06:28:40;;;;;;;;;;;;;;;1.62;79.78;101488.58;107591;1255;108445;-66
2024/02/22 06:31:08;;;;;;;;;;;;;;;1.71;79.87;101484.86;107488;1254;98502;-65
2024/02/22 06:33:38;;;;;;;;;;;;;;;1.80;79.56;101483.25;107618;1255;97838;-67
2024/02/22 06:36:09;;;;;;;;;;;;;;;1.90;79.43;101483.72;107600;1254;111528;-64
2024/02/22 06:38:45;;;;;;;;;;;;;;;1.97;79.49;101483.79;107621;1254;108519;-66
2024/02/22 06:41:15;;;;;;;;;;;;;;;2.05;79.78;101482.94;107588;1254;108236;-65
2024/02/22 06:43:44;;;;;;;;;;;;;;;2.15;79.92;101481.67;107548;1255;97885;-66
2024/02/22 06:46:13;;;;;;;;;;;;;;;2.26;80.06;101478.55;107598;1251;97720;-64
2024/02/22 06:48:41;;;;;;;;;;;;;;;2.37;80.22;101479.69;107587;1254;111419;-66
2024/02/22 06:51:10;;;;;;;;;;;;;;;2.43;80.40;101474.79;107636;1254;106379;-65
2024/02/22 06:53:39;;;;;;;;;;;;;;;2.43;80.47;101472.85;107581;1254;108714;-65
2024/02/22 06:56:08;;;;;;;;;;;;;;;2.47;80.32;101474.10;107578;1254;97845;-67
2024/02/22 06:58:36;;;;;;;;;;;;;;;2.54;80.57;101470.12;107629;1254;97853;-65
2024/02/22 07:01:05;;;;;;;;;;;;;;;2.62;80.67;101474.35;107646;1254;111433;-66
2024/02/22 07:03:33;;;;;;;;;;;;;;;2.71;80.76;101472.02;107612;1256;108003;-63
2024/02/22 07:06:01;;;;;;;;;;;;;;;2.79;81.16;101472.55;107606;1254;107755;-64
2024/02/22 07:08:29;;;;;;;;;;;;;;;2.92;81.46;101470.73;107595;1256;97931;-66
2024/02/22 07:10:57;;;;;;;;;;;;;;;3.03;81.30;101470.77;107528;1256;97873;-69
2024/02/22 07:13:27;;;;;;;;;;;;;;;3.11;80.98;101474.11;107620;1254;111454;-66
2024/02/22 07:15:56;;;;;;;;;;;;;;;3.16;80.75;101472.10;107602;1254;109110;-65
2024/02/22 07:18:24;;;;;;;;;;;;;;;3.21;80.69;101472.08;107430;1254;107317;-66
2024/02/22 07:20:52;;;;;;;;;;;;;;;3.31;80.85;101474.09;107574;1257;97997;-65
2024/02/22 07:23:21;;;;;;;;;;;;;;;3.40;80.46;101472.25;107590;1254;98541;-65
2024/02/22 07:25:50;;;;;;;;;;;;;;;3.48;80.64;101472.95;107614;1257;111920;-65
2024/02/22 07:28:18;;;;;;;;;;;;;;;3.58;80.78;101476.52;107531;1251;107351;-64
2024/02/22 07:30:47;;;;;;;;;;;;;;;3.66;80.57;101477.41;107520;1256;107501;-63
2024/02/22 07:33:16;;;;;;;;;;;;;;;3.77;80.50;101477.06;107608;1255;97835;-64
2024/02/22 07:35:45;;;;;;;;;;;;;;;3.91;80.84;101475.64;107616;1254;98414;-63
2024/02/22 07:38:13;;;;;;;;;;;;;;;3.98;80.64;101473.70;107590;1255;112612;-64
2024/02/22 07:40:41;;;;;;;;;;;;;;;4.06;80.93;101468.34;107590;1253;107662;-65
2024/02/22 07:43:09;;;;;;;;;;;;;;;4.15;80.85;101465.78;107531;1254;108573;-66
2024/02/22 07:45:38;;;;;;;;;;;;;;;4.17;80.53;101466.55;107491;1253;97845;-66
2024/02/22 07:48:09;;;;;;;;;;;;;;;4.21;80.54;101464.55;107597;1256;97926;-65
2024/02/22 07:50:37;;;;;;;;;;;;;;;4.28;80.26;101461.02;107606;1254;112402;-64
2024/02/22 07:53:08;;;;;;;;;;;;;;;4.45;80.44;101459.46;107594;1254;107910;-65
2024/02/22 07:55:38;;;;;;;;;;;;;;;4.66;80.94;101457.30;107533;1254;108896;-66
2024/02/22 07:58:08;;;;;;;;;;;;;;;4.79;80.61;101454.13;107591;1256;97830;-65
2024/02/22 08:00:37;;;;;;;;;;;;;;;4.94;80.38;101459.02;107608;1254;97844;-66
2024/02/22 08:03:05;;;;;;;;;;;;;;;5.13;80.39;101455.53;107624;1254;110735;-63
2024/02/22 08:05:34;;;;;;;;;;;;;;;5.24;79.91;101453.85;107570;1255;108349;-65
2024/02/22 08:08:02;;;;;;;;;;;;;;;5.33;80.18;101451.20;107623;1255;108244;-65
2024/02/22 08:10:30;;;;;;;;;;;;;;;5.42;80.15;101452.15;107635;1255;97826;-67
2024/02/22 08:12:59;;;;;;;;;;;;;;;5.48;79.98;101449.48;107580;1255;97726;-65
2024/02/22 08:15:27;;;;;;;;;;;;;;;5.61;80.27;101448.02;107610;1251;111926;-67
2024/02/22 08:17:56;;;;;;;;;;;;;;;5.69;79.44;101444.08;107633;1254;108054;-67
2024/02/22 08:20:24;;;;;;;;;;;;;;;5.76;79.64;101442.61;107552;1254;107849;-65
2024/02/22 08:22:53;;;;;;;;;;;;;;;5.82;79.50;101442.98;107593;1254;97847;-65
2024/02/22 08:25:22;;;;;;;;;;;;;;;5.88;79.26;101439.56;107689;1256;97851;-63
2024/02/22 08:27:54;;;;;;;;;;;;;;;5.95;78.82;101437.91;107577;1254;111417;-63
2024/02/22 08:30:36;;;;;;;;;;;;;;;6.06;78.77;101432.01;107610;1255;108060;-66
2024/02/22 08:33:04;;;;;;;;;;;;;;;6.17;78.49;101432.25;107597;1256;106097;-65
2024/02/22 08:35:32;;;;;;;;;;;;;;;6.27;78.38;101431.45;107647;1256;97834;-67
2024/02/22 08:38:01;;;;;;;;;;;;;;;6.42;78.33;101419.85;107675;1254;98505;-70
2024/02/22 08:40:29;;;;;;;;;;;;;;;6.61;78.01;101418.01;107670;1257;111483;-66
2024/02/22 08:43:08;;;;;;;;;;;;;;;6.78;77.19;101412.84;107467;1256;107883;-66
2024/02/22 08:45:37;;;;;;;;;;;;;;;6.91;75.77;101411.16;107548;1254;107768;-66
2024/02/22 08:48:06;;;;;;;;;;;;;;;7.08;76.48;101400.85;107054;1254;759848;-67
2024/02/22 08:50:34;;;;;;;;;;;;;;;7.30;76.32;101394.42;107525;1254;97765;-66
2024/02/22 08:53:02;;;;;;;;;;;;;;;7.50;75.38;101396.48;107593;1255;112066;-66
2024/02/22 08:55:31;;;;;;;;;;;;;;;7.66;74.38;101390.33;107706;1254;107583;-65
2024/02/22 08:57:59;;;;;;;;;;;;;;;7.77;73.31;101383.30;107562;1254;108585;-66
2024/02/22 09:00:29;;;;;;;;;;;;;;;7.94;73.54;101376.30;107535;1251;97819;-65
2024/02/22 09:02:58;;;;;;;;;;;;;;;8.13;72.77;101375.15;107575;1251;97863;-64
2024/02/22 09:05:26;;;;;;;;;;;;;;;8.27;71.78;101372.83;107586;1254;111717;-65
2024/02/22 09:07:56;;;;;;;;;;;;;;;8.43;70.96;101365.61;107594;1250;108346;-65
2024/02/22 09:10:24;;;;;;;;;;;;;;;8.61;70.81;101353.50;107539;1250;106612;-66
2024/02/22 09:12:52;;;;;;;;;;;;;;;8.80;69.80;101351.75;107544;1254;97956;-67
2024/02/22 09:15:21;;;;;;;;;;;;;;;9.00;69.63;101346.94;107532;1254;97893;-68
2024/02/22 09:17:49;;;;;;;;;;;;;;;9.15;67.78;101348.17;107622;1254;110688;-66
2024/02/22 09:20:18;;;;;;;;;;;;;;;9.29;67.29;101342.67;107648;1254;109225;-62
2024/02/22 09:22:47;;;;;;;;;;;;;;;9.62;66.29;101344.90;107592;1254;107751;-66
2024/02/22 09:25:16;;;;;;;;;;;;;;;10.14;64.39;101346.88;107562;1254;97931;-66
2024/02/22 09:27:45;;;;;;;;;;;;;;;10.58;62.03;101337.73;107643;1254;97812;-66
2024/02/22 09:30:14;;;;;;;;;;;;;;;11.15;61.69;101341.36;107625;1253;111223;-66
2024/02/22 09:32:42;;;;;;;;;;;;;;;11.77;59.67;101329.32;107664;1254;108216;-65
2024/02/22 09:35:11;;;;;;;;;;;;;;;12.20;58.65;101332.47;107546;1256;108029;-66
2024/02/22 09:37:42;;;;;;;;;;;;;;;12.72;57.17;101323.10;107391;1254;98056;-67
2024/02/22 09:40:14;;;;;;;;;;;;;;;13.11;55.49;101319.23;107564;1254;97848;-65
2024/02/22 09:42:43;;;;;;;;;;;;;;;13.29;52.98;101316.73;107522;1254;111707;-68
2024/02/22 09:45:12;;;;;;;;;;;;;;;13.58;52.74;101318.08;107547;1254;107805;-65
2024/02/22 09:47:44;;;;;;;;;;;;;;;13.98;52.66;101317.48;107513;1254;108083;-66
2024/02/22 09:50:15;;;;;;;;;;;;;;;14.50;53.55;101308.89;107481;1254;97916;-64
2024/02/22 09:52:44;;;;;;;;;;;;;;;15.17;52.27;101308.30;107559;1254;97749;-65
2024/02/22 09:55:15;;;;;;;;;;;;;;;15.55;49.15;101306.16;107561;1254;111670;-64
2024/02/22 09:57:43;;;;;;;;;;;;;;;15.84;47.73;101300.55;107579;1254;107783;-64
2024/02/22 10:00:11;;;;;;;;;;;;;;;15.99;46.06;101296.52;107521;1254;107031;-63
2024/02/22 10:02:48;;;;;;;;;;;;;;;15.78;45.53;101290.67;107535;1256;97887;-64
2024/02/22 10:05:17;;;;;;;;;;;;;;;15.88;46.63;101291.29;107545;1254;97714;-66
2024/02/22 10:07:45;;;;;;;;;;;;;;;16.29;46.07;101280.56;107598;1254;111289;-65
2024/02/22 10:10:23;;;;;;;;;;;;;;;16.47;44.70;101278.52;107529;1254;108495;-64
2024/02/22 10:12:51;;;;;;;;;;;;;;;16.72;44.54;101277.48;107552;1254;107491;-65
2024/02/22 10:15:25;;;;;;;;;;;;;;;16.96;43.49;101267.67;107533;1254;97816;-64
2024/02/22 10:17:54;;;;;;;;;;;;;;;17.33;44.74;101260.67;107570;1253;97851;-64
2024/02/22 10:20:31;;;;;;;;;;;;;;;17.97;44.64;101259.19;107546;1254;111788;-65
2024/02/22 10:23:09;;;;;;;;;;;;;;;18.23;41.72;101253.05;107570;1254;108570;-66
2024/02/22 10:25:39;;;;;;;;;;;;;;;18.17;41.27;101251.31;107535;1254;107615;-65
2024/02/22 10:28:13;;;;;;;;;;;;;;;18.19;41.36;101244.16;107532;1257;97895;-66
2024/02/22 10:30:43;;;;;;;;;;;;;;;18.53;42.03;101242.16;107590;1252;97883;-65
2024/02/22 10:33:11;;;;;;;;;;;;;;;18.60;41.07;101235.15;107591;1253;110487;-67
2024/02/22 10:35:40;;;;;;;;;;;;;;;18.92;41.36;101236.45;107639;1253;108993;-67
2024/02/22 10:38:11;;;;;;;;;;;;;;;19.26;41.10;101227.73;107621;1254;108140;-66
2024/02/22 10:40:44;;;;;;;;;;;;;;;19.35;39.97;101224.66;107597;1254;97876;-64
2024/02/22 10:43:14;;;;;;;;;;;;;;;19.36;40.59;101221.08;107630;1256;97729;-65
2024/02/22 10:45:43;;;;;;;;;;;;;;;19.77;40.19;101216.98;107643;1254;111131;-67
2024/02/22 10:48:12;;;;;;;;;;;;;;;19.88;39.39;101206.05;107591;1254;107313;-66
2024/02/22 10:50:43;;;;;;;;;;;;;;;20.11;39.24;101194.15;107517;1254;107718;-68
2024/02/22 10:53:15;;;;;;;;;;;;;;;20.47;38.90;101190.08;107439;1254;97938;-68
2024/02/22 10:55:48;;;;;;;;;;;;;;;20.47;37.56;101182.90;107552;1254;97767;-67
2024/02/22 10:58:21;;;;;;;;;;;;;;;20.39;37.46;101178.13;107607;1255;110903;-67
2024/02/22 11:00:55;;;;;;;;;;;;;;;20.67;37.89;101174.43;107623;1251;106772;-67
2024/02/22 11:03:25;;;;;;;;;;;;;;;20.84;37.61;101165.82;107425;1251;107655;-67
2024/02/22 11:05:55;;;;;;;;;;;;;;;21.15;36.90;101160.36;107541;1253;97704;-64
2024/02/22 11:08:28;;;;;;;;;;;;;;;21.57;37.59;101158.67;107721;1254;97945;-66
2024/02/22 11:11:06;;;;;;;;;;;;;;;22.05;35.18;101153.55;107601;1254;110464;-65
2024/02/22 11:13:36;;;;;;;;;;;;;;;22.34;34.79;101148.80;107667;1254;108560;-65
2024/02/22 11:16:12;;;;;;;;;;;;;;;23.02;35.54;101141.56;107616;1254;107649;-64
2024/02/22 11:18:40;;;;;;;;;;;;;;;23.84;33.64;101134.58;107649;1254;97838;-64
2024/02/22 11:21:12;;;;;;;;;;;;;;;24.40;31.49;101134.16;107622;1254;97819;-64
2024/02/22 11:23:40;;;;;;;;;;;;;;;24.87;27.53;101131.23;107676;1254;110692;-64
2024/02/22 11:26:11;;;;;;;;;;;;;;;24.89;29.06;101123.90;107648;1255;107937;-65
2024/02/22 11:28:39;;;;;;;;;;;;;;;25.18;27.69;101121.97;107542;1250;108494;-65
2024/02/22 11:31:09;;;;;;;;;;;;;;;25.11;25.90;101121.91;107621;1251;97832;-63
2024/02/22 11:33:38;;;;;;;;;;;;;;;24.91;25.52;101116.13;107532;1254;97854;-64
2024/02/22 11:36:08;;;;;;;;;;;;;;;24.43;25.68;101112.91;107629;1254;112150;-65
2024/02/22 11:38:37;;;;;;;;;;;;;;;23.72;26.29;101107.87;107685;1251;107955;-62
2024/02/22 11:41:05;;;;;;;;;;;;;;;23.58;26.80;101099.31;107439;1251;108246;-64
2024/02/22 11:43:35;;;;;;;;;;;;;;;23.50;26.80;101098.92;107499;1251;98411;-63
2024/02/22 11:46:06;;;;;;;;;;;;;;;23.31;27.18;101086.75;107508;1251;97818;-64
2024/02/22 11:48:34;;;;;;;;;;;;;;;23.08;26.91;101090.83;107523;1254;111045;-64
2024/02/22 11:51:04;;;;;;;;;;;;;;;22.58;27.25;101082.27;107638;1257;107884;-64
2024/02/22 11:53:32;;;;;;;;;;;;;;;22.13;27.71;101077.08;107608;1251;107222;-64
2024/02/22 11:56:00;;;;;;;;;;;;;;;21.75;27.70;101075.15;107667;1254;99083;-63
2024/02/22 11:58:29;;;;;;;;;;;;;;;21.40;27.79;101067.98;107549;1254;97847;-67
2024/02/22 12:01:00;;;;;;;;;;;;;;;21.03;28.11;101058.30;107624;1256;111485;-64
2024/02/22 12:03:28;;;;;;;;;;;;;;;20.72;28.31;101060.22;107658;1251;108754;-63
2024/02/22 12:05:57;;;;;;;;;;;;;;;20.30;28.84;101055.92;107524;1251;108558;-63
2024/02/22 12:08:26;;;;;;;;;;;;;;;19.97;29.42;101047.86;107409;1254;97909;-64
2024/02/22 12:10:55;;;;;;;;;;;;;;;19.72;28.78;101053.41;107616;1251;97837;-62
2024/02/22 12:13:23;;;;;;;;;;;;;;;19.19;29.56;101042.04;107498;1253;112641;-66
2024/02/22 12:16:08;;;;;;;;;;;;;;;18.79;30.25;101034.80;107628;1251;107783;-65
2024/02/22 12:18:39;;;;;;;;;;;;;;;18.60;31.10;101029.52;107524;1251;107860;-65
2024/02/22 12:21:10;;;;;;;;;;;;;;;18.59;31.35;101026.64;107548;1251;97835;-64
2024/02/22 12:23:39;;;;;;;;;;;;;;;18.50;31.45;101022.43;107615;1253;97826;-65
2024/02/22 12:26:07;;;;;;;;;;;;;;;18.50;31.73;101016.83;107560;1256;112054;-64
2024/02/22 12:28:36;;;;;;;;;;;;;;;18.52;31.36;101010.34;107563;1251;107551;-64
2024/02/22 12:31:06;;;;;;;;;;;;;;;18.56;31.78;101002.23;107631;1255;106779;-64
2024/02/22 12:33:35;;;;;;;;;;;;;;;18.67;31.17;100996.41;107661;1250;98017;-63
2024/02/22 12:36:04;;;;;;;;;;;;;;;18.59;30.96;100997.00;107640;1253;97707;-65